Time,TemperatureF,DewpointF,PressureIn,WindDirection,WindDirectionDegrees,WindSpeedMPH,WindSpeedGustMPH,Humidity,HourlyPrecipIn,Conditions,Clouds,dailyrainin,SolarRadiationWatts/m^2,SoftwareType,DateUTC
2013-03-04 00:01:00,49.0,31.0,-100.00,ESE,110,3.0,7.0,50,0.00,,,0.00,0.000000,,2013-03-04 06:01:00,
2013-03-04 00:32:00,50.0,33.0,-100.00,East,82,3.0,8.0,52,0.00,,,0.00,0.000000,,2013-03-04 06:32:00,
2013-03-04 00:42:00,50.0,33.0,-100.00,East,82,3.0,8.0,52,0.00,,,0.00,0.000000,,2013-03-04 06:42:00,
2013-03-04 00:52:00,50.0,33.0,-100.00,East,82,3.0,8.0,52,0.00,,,0.00,0.000000,,2013-03-04 06:52:00,
2013-03-04 01:01:00,50.0,33.0,-100.00,East,82,3.0,8.0,52,0.00,,,0.00,0.000000,,2013-03-04 07:01:00,
2013-03-04 01:02:00,49.0,33.0,-100.00,East,93,3.0,7.0,54,0.00,,,0.00,0.000000,,2013-03-04 07:02:00,
2013-03-04 01:32:00,49.0,33.0,-100.00,East,93,3.0,7.0,54,0.00,,,0.00,0.000000,,2013-03-04 07:32:00,
2013-03-04 01:42:00,49.0,33.0,-100.00,East,93,3.0,7.0,54,0.00,,,0.00,0.000000,,2013-03-04 07:42:00,
2013-03-04 01:52:00,49.0,33.0,-100.00,East,93,3.0,7.0,54,0.00,,,0.00,0.000000,,2013-03-04 07:52:00,
2013-03-04 02:32:00,49.0,34.0,-100.00,ESE,108,3.0,6.0,57,0.00,,,0.00,0.000000,,2013-03-04 08:32:00,
2013-03-04 02:42:00,49.0,34.0,-100.00,ESE,108,3.0,6.0,57,0.00,,,0.00,0.000000,,2013-03-04 08:42:00,
2013-03-04 02:52:00,49.0,34.0,-100.00,ESE,108,3.0,6.0,57,0.00,,,0.00,0.000000,,2013-03-04 08:52:00,
2013-03-04 03:01:00,49.0,34.0,-100.00,ESE,108,3.0,6.0,57,0.00,,,0.00,0.000000,,2013-03-04 09:01:00,
2013-03-04 03:22:00,51.0,37.0,-100.00,SE,124,4.0,7.0,58,0.00,,,0.00,0.000000,,2013-03-04 09:22:00,
2013-03-04 03:32:00,51.0,37.0,-100.00,SE,124,4.0,7.0,58,0.00,,,0.00,0.000000,,2013-03-04 09:32:00,
2013-03-04 03:42:00,51.0,37.0,-100.00,SE,124,4.0,7.0,58,0.00,,,0.00,0.000000,,2013-03-04 09:42:00,
2013-03-04 03:52:00,51.0,37.0,-100.00,SE,124,4.0,7.0,58,0.00,,,0.00,0.000000,,2013-03-04 09:52:00,
2013-03-04 04:01:00,51.0,37.0,-100.00,SE,124,4.0,7.0,58,0.00,,,0.00,0.000000,,2013-03-04 10:01:00,
2013-03-04 04:32:00,48.0,37.0,-100.00,ESE,105,3.0,7.0,66,0.00,,,0.00,0.000000,,2013-03-04 10:32:00,
2013-03-04 04:42:00,48.0,37.0,-100.00,ESE,105,3.0,7.0,66,0.00,,,0.00,0.000000,,2013-03-04 10:42:00,
2013-03-04 04:52:00,48.0,37.0,-100.00,ESE,105,3.0,7.0,66,0.00,,,0.00,0.000000,,2013-03-04 10:52:00,
2013-03-04 05:01:00,48.0,37.0,-100.00,ESE,105,3.0,7.0,66,0.00,,,0.00,0.000000,,2013-03-04 11:01:00,
2013-03-04 05:22:00,47.0,38.0,-100.00,ESE,120,3.0,6.0,70,0.00,,,0.00,0.000000,,2013-03-04 11:22:00,
2013-03-04 05:32:00,47.0,38.0,-100.00,ESE,120,3.0,6.0,70,0.00,,,0.00,0.000000,,2013-03-04 11:32:00,
2013-03-04 05:42:00,47.0,38.0,-100.00,ESE,120,3.0,6.0,70,0.00,,,0.00,0.000000,,2013-03-04 11:42:00,
2013-03-04 05:52:00,47.0,38.0,-100.00,ESE,120,3.0,6.0,70,0.00,,,0.00,0.000000,,2013-03-04 11:52:00,
2013-03-04 06:01:00,47.0,38.0,-100.00,ESE,120,3.0,6.0,70,0.00,,,0.00,0.000000,,2013-03-04 12:01:00,
2013-03-04 06:02:00,46.0,38.0,-100.00,East,94,3.0,7.0,74,0.00,,,0.00,0.000000,,2013-03-04 12:02:00,
2013-03-04 06:22:00,46.0,38.0,-100.00,East,94,3.0,7.0,74,0.00,,,0.00,0.000000,,2013-03-04 12:22:00,
2013-03-04 06:32:00,46.0,38.0,-100.00,East,94,3.0,7.0,74,0.00,,,0.00,0.000000,,2013-03-04 12:32:00,
2013-03-04 06:42:00,46.0,38.0,-100.00,East,94,3.0,7.0,74,0.00,,,0.00,0.000000,,2013-03-04 12:42:00,
2013-03-04 06:53:00,46.0,38.0,-100.00,East,94,3.0,7.0,74,0.00,,,0.00,0.000000,,2013-03-04 12:53:00,
2013-03-04 07:22:00,45.0,39.0,-100.00,East,94,3.0,7.0,79,0.00,,,0.00,2.000000,,2013-03-04 13:22:00,
2013-03-04 07:32:00,45.0,39.0,-100.00,East,94,3.0,7.0,79,0.00,,,0.00,2.000000,,2013-03-04 13:32:00,
2013-03-04 07:42:00,45.0,39.0,-100.00,East,94,3.0,7.0,79,0.00,,,0.00,2.000000,,2013-03-04 13:42:00,
2013-03-04 07:52:00,45.0,39.0,-100.00,East,94,3.0,7.0,79,0.00,,,0.00,2.000000,,2013-03-04 13:52:00,
2013-03-04 08:01:00,45.0,39.0,-100.00,East,94,3.0,7.0,79,0.00,,,0.00,2.000000,,2013-03-04 14:01:00,
2013-03-04 08:32:00,48.0,42.0,-100.00,East,83,4.0,6.0,79,0.00,,,0.00,66.000000,,2013-03-04 14:32:00,
2013-03-04 08:42:00,48.0,42.0,-100.00,East,83,4.0,6.0,79,0.00,,,0.00,66.000000,,2013-03-04 14:42:00,
2013-03-04 08:52:00,48.0,42.0,-100.00,East,83,4.0,6.0,79,0.00,,,0.00,66.000000,,2013-03-04 14:52:00,
2013-03-04 09:01:00,48.0,42.0,-100.00,East,83,4.0,6.0,79,0.00,,,0.00,66.000000,,2013-03-04 15:01:00,
2013-03-04 09:02:00,51.0,44.0,-100.00,East,96,4.0,9.0,78,0.00,,,0.00,133.000000,,2013-03-04 15:02:00,
2013-03-04 09:32:00,51.0,44.0,-100.00,East,96,4.0,9.0,78,0.00,,,0.00,133.000000,,2013-03-04 15:32:00,
2013-03-04 09:42:00,51.0,44.0,-100.00,East,96,4.0,9.0,78,0.00,,,0.00,133.000000,,2013-03-04 15:42:00,
2013-03-04 09:52:00,51.0,44.0,-100.00,East,96,4.0,9.0,78,0.00,,,0.00,133.000000,,2013-03-04 15:52:00,
2013-03-04 10:02:00,56.0,47.0,-100.00,SSE,155,5.0,8.0,73,0.00,,,0.00,203.000000,,2013-03-04 16:02:00,
2013-03-04 10:32:00,56.0,47.0,-100.00,SSE,155,5.0,8.0,73,0.00,,,0.00,203.000000,,2013-03-04 16:32:00,
2013-03-04 10:42:00,56.0,47.0,-100.00,SSE,155,5.0,8.0,73,0.00,,,0.00,203.000000,,2013-03-04 16:42:00,
2013-03-04 10:52:00,56.0,47.0,-100.00,SSE,155,5.0,8.0,73,0.00,,,0.00,203.000000,,2013-03-04 16:52:00,
2013-03-04 11:22:00,62.0,49.0,-100.00,SSW,210,4.0,13.0,63,0.00,,,0.00,226.000000,,2013-03-04 17:22:00,
2013-03-04 11:32:00,62.0,49.0,-100.00,SSW,210,4.0,13.0,63,0.00,,,0.00,226.000000,,2013-03-04 17:32:00,
2013-03-04 11:42:00,62.0,49.0,-100.00,SSW,210,4.0,13.0,63,0.00,,,0.00,226.000000,,2013-03-04 17:42:00,
2013-03-04 11:52:00,62.0,49.0,-100.00,SSW,210,4.0,13.0,63,0.00,,,0.00,226.000000,,2013-03-04 17:52:00,
2013-03-04 12:01:00,62.0,49.0,-100.00,SSW,210,4.0,13.0,63,0.00,,,0.00,226.000000,,2013-03-04 18:01:00,
2013-03-04 12:02:00,69.0,49.0,-100.00,SSW,213,6.0,15.0,49,0.00,,,0.00,604.000000,,2013-03-04 18:02:00,
2013-03-04 12:32:00,69.0,49.0,-100.00,SSW,213,6.0,15.0,49,0.00,,,0.00,604.000000,,2013-03-04 18:32:00,
2013-03-04 12:42:00,69.0,49.0,-100.00,SSW,213,6.0,15.0,49,0.00,,,0.00,604.000000,,2013-03-04 18:42:00,
2013-03-04 12:52:00,69.0,49.0,-100.00,SSW,213,6.0,15.0,49,0.00,,,0.00,604.000000,,2013-03-04 18:52:00,
2013-03-04 13:32:00,73.0,47.0,-100.00,SSW,212,7.0,20.0,40,0.00,,,0.00,813.000000,,2013-03-04 19:32:00,
2013-03-04 13:42:00,73.0,47.0,-100.00,SSW,212,7.0,20.0,40,0.00,,,0.00,813.000000,,2013-03-04 19:42:00,
2013-03-04 13:52:00,73.0,47.0,-100.00,SSW,212,7.0,20.0,40,0.00,,,0.00,813.000000,,2013-03-04 19:52:00,
2013-03-04 14:01:00,73.0,47.0,-100.00,SSW,212,7.0,20.0,40,0.00,,,0.00,813.000000,,2013-03-04 20:01:00,
2013-03-04 14:02:00,75.0,47.0,-100.00,SW,215,7.0,19.0,37,0.00,,,0.00,831.000000,,2013-03-04 20:02:00,
2013-03-04 14:32:00,75.0,47.0,-100.00,SW,215,7.0,19.0,37,0.00,,,0.00,831.000000,,2013-03-04 20:32:00,
2013-03-04 14:42:00,75.0,47.0,-100.00,SW,215,7.0,19.0,37,0.00,,,0.00,831.000000,,2013-03-04 20:42:00,
2013-03-04 14:52:00,75.0,47.0,-100.00,SW,215,7.0,19.0,37,0.00,,,0.00,831.000000,,2013-03-04 20:52:00,
2013-03-04 15:02:00,78.0,46.0,-100.00,SW,227,7.0,17.0,32,0.00,,,0.00,751.000000,,2013-03-04 21:02:00,
2013-03-04 15:32:00,78.0,46.0,-100.00,SW,227,7.0,17.0,32,0.00,,,0.00,751.000000,,2013-03-04 21:32:00,
2013-03-04 15:43:00,78.0,46.0,-100.00,SW,227,7.0,17.0,32,0.00,,,0.00,751.000000,,2013-03-04 21:43:00,
2013-03-04 15:53:00,78.0,46.0,-100.00,SW,227,7.0,17.0,32,0.00,,,0.00,751.000000,,2013-03-04 21:53:00,
2013-03-04 16:22:00,78.0,45.0,-100.00,SSW,206,6.0,17.0,31,0.00,,,0.00,553.000000,,2013-03-04 22:22:00,
2013-03-04 16:32:00,78.0,45.0,-100.00,SSW,206,6.0,17.0,31,0.00,,,0.00,553.000000,,2013-03-04 22:32:00,
2013-03-04 16:43:00,78.0,45.0,-100.00,SSW,206,6.0,17.0,31,0.00,,,0.00,553.000000,,2013-03-04 22:43:00,
2013-03-04 16:52:00,78.0,45.0,-100.00,SSW,206,6.0,17.0,31,0.00,,,0.00,553.000000,,2013-03-04 22:52:00,
2013-03-04 17:01:00,78.0,45.0,-100.00,SSW,206,6.0,17.0,31,0.00,,,0.00,553.000000,,2013-03-04 23:01:00,
2013-03-04 17:02:00,78.0,45.0,-100.00,SW,218,6.0,11.0,31,0.00,,,0.00,350.000000,,2013-03-04 23:02:00,
2013-03-04 17:32:00,78.0,45.0,-100.00,SW,218,6.0,11.0,31,0.00,,,0.00,350.000000,,2013-03-04 23:32:00,
2013-03-04 17:42:00,78.0,45.0,-100.00,SW,218,6.0,11.0,31,0.00,,,0.00,350.000000,,2013-03-04 23:42:00,
2013-03-04 17:52:00,78.0,45.0,-100.00,SW,218,6.0,11.0,31,0.00,,,0.00,350.000000,,2013-03-04 23:52:00,
2013-03-04 18:32:00,74.0,45.0,-100.00,South,181,3.0,12.0,35,0.00,,,0.00,120.000000,,2013-03-05 00:32:00,
2013-03-04 18:42:00,74.0,45.0,-100.00,South,181,3.0,12.0,35,0.00,,,0.00,120.000000,,2013-03-05 00:42:00,
2013-03-04 18:52:00,74.0,45.0,-100.00,South,181,3.0,12.0,35,0.00,,,0.00,120.000000,,2013-03-05 00:52:00,
2013-03-04 19:01:00,74.0,45.0,-100.00,South,181,3.0,12.0,35,0.00,,,0.00,120.000000,,2013-03-05 01:01:00,
2013-03-04 19:33:00,67.0,46.0,-100.00,SW,226,1.0,5.0,46,0.00,,,0.00,4.000000,,2013-03-05 01:33:00,
2013-03-04 19:42:00,67.0,46.0,-100.00,SW,226,1.0,5.0,46,0.00,,,0.00,4.000000,,2013-03-05 01:42:00,
2013-03-04 19:52:00,67.0,46.0,-100.00,SW,226,1.0,5.0,46,0.00,,,0.00,4.000000,,2013-03-05 01:52:00,
2013-03-04 20:01:00,67.0,46.0,-100.00,SW,226,1.0,5.0,46,0.00,,,0.00,4.000000,,2013-03-05 02:01:00,
2013-03-04 20:02:00,61.0,47.0,-100.00,SE,142,1.0,2.0,59,0.00,,,0.00,0.000000,,2013-03-05 02:02:00,
2013-03-04 20:32:00,61.0,47.0,-100.00,SE,142,1.0,2.0,59,0.00,,,0.00,0.000000,,2013-03-05 02:32:00,
2013-03-04 20:42:00,61.0,47.0,-100.00,SE,142,1.0,2.0,59,0.00,,,0.00,0.000000,,2013-03-05 02:42:00,
2013-03-04 20:52:00,61.0,47.0,-100.00,SE,142,1.0,2.0,59,0.00,,,0.00,0.000000,,2013-03-05 02:52:00,
2013-03-04 21:22:00,56.0,47.0,-100.00,North,10,1.0,3.0,71,0.00,,,0.00,0.000000,,2013-03-05 03:22:00,
2013-03-04 21:32:00,56.0,47.0,-100.00,North,10,1.0,3.0,71,0.00,,,0.00,0.000000,,2013-03-05 03:32:00,
2013-03-04 21:42:00,56.0,47.0,-100.00,North,10,1.0,3.0,71,0.00,,,0.00,0.000000,,2013-03-05 03:42:00,
2013-03-04 21:52:00,56.0,47.0,-100.00,North,10,1.0,3.0,71,0.00,,,0.00,0.000000,,2013-03-05 03:52:00,
2013-03-04 22:01:00,56.0,47.0,-100.00,North,10,1.0,3.0,71,0.00,,,0.00,0.000000,,2013-03-05 04:01:00,
2013-03-04 22:02:00,56.0,47.0,-100.00,NE,49,0.0,2.0,73,0.00,,,0.00,0.000000,,2013-03-05 04:02:00,
2013-03-04 22:32:00,56.0,47.0,-100.00,NE,49,0.0,2.0,73,0.00,,,0.00,0.000000,,2013-03-05 04:32:00,
2013-03-04 22:42:00,56.0,47.0,-100.00,NE,49,0.0,2.0,73,0.00,,,0.00,0.000000,,2013-03-05 04:42:00,
2013-03-04 22:52:00,56.0,47.0,-100.00,NE,49,0.0,2.0,73,0.00,,,0.00,0.000000,,2013-03-05 04:52:00,
2013-03-04 23:22:00,56.0,47.0,-100.00,NW,309,1.0,2.0,71,0.00,,,0.00,0.000000,,2013-03-05 05:22:00,
2013-03-04 23:32:00,56.0,47.0,-100.00,NW,309,1.0,2.0,71,0.00,,,0.00,0.000000,,2013-03-05 05:32:00,
2013-03-04 23:42:00,56.0,47.0,-100.00,NW,309,1.0,2.0,71,0.00,,,0.00,0.000000,,2013-03-05 05:42:00,
2013-03-04 23:52:00,56.0,47.0,-100.00,NW,309,1.0,2.0,71,0.00,,,0.00,0.000000,,2013-03-05 05:52:00,